Terminal Aerodrome Forecast
Issued by NWS Charleston, WV

Current Version | Previous Version | Text Only | Print | Product List | Glossary Off
Versions: 1 2 3 4 5 6 7 8 9 10 11 12 13 14 15 16 17 18 19 20 21 22 23

000
FTUS41 KRLX 270500 RRA
TAFPKB
TAF
KPKB 270556Z 2706/2806 32005KT P6SM BKN040
     FM270900 32006KT P6SM SCT040
     FM271600 32008KT P6SM BKN040
     FM280300 32007KT P6SM SCT040=

USA.gov is the U.S. government's official web portal to all federal, state and local government web resources and services.